sensor_id;sensor_type;location;lat;lon;timestamp;P1;durP1;ratioP1;P2;durP2;ratioP2
56567;SDS011;42456;49.956;20.004;2023-06-10T00:01:44;17.60;;;13.40;;
56567;SDS011;42456;49.956;20.004;2023-06-10T00:04:14;21.20;;;15.50;;
56567;SDS011;42456;49.956;20.004;2023-06-10T00:06:43;18.20;;;14.50;;
56567;SDS011;42456;49.956;20.004;2023-06-10T00:09:10;19.80;;;14.10;;
56567;SDS011;42456;49.956;20.004;2023-06-10T00:11:37;18.00;;;14.00;;
56567;SDS011;42456;49.956;20.004;2023-06-10T00:14:04;19.30;;;14.20;;
56567;SDS011;42456;49.956;20.004;2023-06-10T00:16:31;21.70;;;13.70;;
56567;SDS011;42456;49.956;20.004;2023-06-10T00:18:59;18.20;;;13.40;;
56567;SDS011;42456;49.956;20.004;2023-06-10T00:21:31;16.50;;;12.40;;
56567;SDS011;42456;49.956;20.004;2023-06-10T00:24:04;19.20;;;13.20;;
56567;SDS011;42456;49.956;20.004;2023-06-10T00:26:32;17.70;;;13.40;;
56567;SDS011;42456;49.956;20.004;2023-06-10T00:28:59;18.70;;;13.60;;
56567;SDS011;42456;49.956;20.004;2023-06-10T00:31:26;22.10;;;14.40;;
56567;SDS011;42456;49.956;20.004;2023-06-10T00:33:53;20.30;;;14.60;;
56567;SDS011;42456;49.956;20.004;2023-06-10T00:36:20;17.70;;;12.90;;
56567;SDS011;42456;49.956;20.004;2023-06-10T00:38:47;18.00;;;12.70;;
56567;SDS011;42456;49.956;20.004;2023-06-10T00:41:14;18.10;;;12.60;;
56567;SDS011;42456;49.956;20.004;2023-06-10T00:43:41;16.80;;;13.00;;
56567;SDS011;42456;49.956;20.004;2023-06-10T00:46:07;17.10;;;12.90;;
56567;SDS011;42456;49.956;20.004;2023-06-10T00:48:35;17.20;;;12.90;;
56567;SDS011;42456;49.956;20.004;2023-06-10T00:51:03;19.30;;;13.00;;
56567;SDS011;42456;49.956;20.004;2023-06-10T00:53:32;15.60;;;11.70;;
56567;SDS011;42456;49.956;20.004;2023-06-10T00:55:59;17.20;;;12.80;;
56567;SDS011;42456;49.956;20.004;2023-06-10T00:58:26;16.00;;;12.80;;
56567;SDS011;42456;49.956;20.004;2023-06-10T01:00:53;17.50;;;12.80;;
56567;SDS011;42456;49.956;20.004;2023-06-10T01:03:20;17.80;;;13.40;;
56567;SDS011;42456;49.956;20.004;2023-06-10T01:05:49;17.70;;;13.50;;
56567;SDS011;42456;49.956;20.004;2023-06-10T01:08:53;17.40;;;13.60;;
56567;SDS011;42456;49.956;20.004;2023-06-10T01:11:46;19.10;;;13.70;;
56567;SDS011;42456;49.956;20.004;2023-06-10T01:14:17;19.40;;;14.20;;
56567;SDS011;42456;49.956;20.004;2023-06-10T01:16:44;22.60;;;15.50;;
56567;SDS011;42456;49.956;20.004;2023-06-10T01:19:12;20.60;;;15.50;;
56567;SDS011;42456;49.956;20.004;2023-06-10T01:21:44;20.20;;;15.60;;
56567;SDS011;42456;49.956;20.004;2023-06-10T01:24:15;20.20;;;16.10;;
56567;SDS011;42456;49.956;20.004;2023-06-10T01:26:45;22.20;;;15.40;;
56567;SDS011;42456;49.956;20.004;2023-06-10T01:29:20;24.30;;;19.10;;
56567;SDS011;42456;49.956;20.004;2023-06-10T01:32:32;25.00;;;18.90;;
56567;SDS011;42456;49.956;20.004;2023-06-10T01:37:24;26.60;;;16.70;;
56567;SDS011;42456;49.956;20.004;2023-06-10T01:39:55;26.80;;;18.50;;
56567;SDS011;42456;49.956;20.004;2023-06-10T01:42:25;25.30;;;16.90;;
56567;SDS011;42456;49.956;20.004;2023-06-10T01:44:52;20.50;;;16.10;;
56567;SDS011;42456;49.956;20.004;2023-06-10T01:47:19;22.50;;;16.40;;
56567;SDS011;42456;49.956;20.004;2023-06-10T01:49:46;20.50;;;15.90;;
56567;SDS011;42456;49.956;20.004;2023-06-10T01:52:13;23.40;;;18.00;;
56567;SDS011;42456;49.956;20.004;2023-06-10T01:54:40;25.40;;;18.80;;
56567;SDS011;42456;49.956;20.004;2023-06-10T01:57:06;23.10;;;17.10;;
56567;SDS011;42456;49.956;20.004;2023-06-10T01:59:33;22.50;;;16.60;;
56567;SDS011;42456;49.956;20.004;2023-06-10T02:02:00;23.70;;;17.10;;
56567;SDS011;42456;49.956;20.004;2023-06-10T02:04:27;23.20;;;18.20;;
56567;SDS011;42456;49.956;20.004;2023-06-10T02:06:54;23.30;;;18.60;;
56567;SDS011;42456;49.956;20.004;2023-06-10T02:09:22;24.60;;;19.70;;
56567;SDS011;42456;49.956;20.004;2023-06-10T02:11:49;25.80;;;19.50;;
56567;SDS011;42456;49.956;20.004;2023-06-10T02:14:16;26.40;;;19.20;;
56567;SDS011;42456;49.956;20.004;2023-06-10T02:16:43;30.50;;;23.10;;
56567;SDS011;42456;49.956;20.004;2023-06-10T02:21:40;28.70;;;21.00;;
56567;SDS011;42456;49.956;20.004;2023-06-10T02:24:07;34.30;;;24.30;;
56567;SDS011;42456;49.956;20.004;2023-06-10T02:26:34;30.10;;;23.40;;
56567;SDS011;42456;49.956;20.004;2023-06-10T02:29:02;30.50;;;24.10;;
56567;SDS011;42456;49.956;20.004;2023-06-10T02:31:29;29.80;;;23.60;;
56567;SDS011;42456;49.956;20.004;2023-06-10T02:33:56;31.20;;;24.10;;
56567;SDS011;42456;49.956;20.004;2023-06-10T02:36:23;33.30;;;25.50;;
56567;SDS011;42456;49.956;20.004;2023-06-10T02:38:50;30.70;;;24.20;;
56567;SDS011;42456;49.956;20.004;2023-06-10T02:41:17;32.70;;;24.70;;
56567;SDS011;42456;49.956;20.004;2023-06-10T02:43:44;29.70;;;23.90;;
56567;SDS011;42456;49.956;20.004;2023-06-10T02:46:11;30.80;;;24.30;;
56567;SDS011;42456;49.956;20.004;2023-06-10T02:48:45;33.00;;;24.40;;
56567;SDS011;42456;49.956;20.004;2023-06-10T02:51:12;32.60;;;24.10;;
56567;SDS011;42456;49.956;20.004;2023-06-10T02:53:39;33.80;;;23.90;;
56567;SDS011;42456;49.956;20.004;2023-06-10T02:56:06;28.70;;;23.10;;
56567;SDS011;42456;49.956;20.004;2023-06-10T02:58:33;30.20;;;22.00;;
56567;SDS011;42456;49.956;20.004;2023-06-10T03:01:00;27.70;;;22.00;;
56567;SDS011;42456;49.956;20.004;2023-06-10T03:03:27;27.70;;;22.60;;
56567;SDS011;42456;49.956;20.004;2023-06-10T03:05:54;28.60;;;21.20;;
56567;SDS011;42456;49.956;20.004;2023-06-10T03:08:21;29.50;;;21.40;;
56567;SDS011;42456;49.956;20.004;2023-06-10T03:10:48;27.00;;;19.90;;
56567;SDS011;42456;49.956;20.004;2023-06-10T03:13:14;25.00;;;19.10;;
56567;SDS011;42456;49.956;20.004;2023-06-10T03:15:41;24.60;;;18.50;;
56567;SDS011;42456;49.956;20.004;2023-06-10T03:18:08;26.10;;;18.10;;
56567;SDS011;42456;49.956;20.004;2023-06-10T03:20:35;23.30;;;18.00;;
56567;SDS011;42456;49.956;20.004;2023-06-10T03:23:04;26.50;;;18.70;;
56567;SDS011;42456;49.956;20.004;2023-06-10T03:25:32;25.10;;;18.70;;
56567;SDS011;42456;49.956;20.004;2023-06-10T03:27:59;27.50;;;18.50;;
56567;SDS011;42456;49.956;20.004;2023-06-10T03:30:29;27.50;;;19.30;;
56567;SDS011;42456;49.956;20.004;2023-06-10T03:32:56;25.40;;;19.10;;
56567;SDS011;42456;49.956;20.004;2023-06-10T03:35:23;28.90;;;19.60;;
56567;SDS011;42456;49.956;20.004;2023-06-10T03:37:50;27.80;;;19.70;;
56567;SDS011;42456;49.956;20.004;2023-06-10T03:40:17;28.90;;;18.90;;
56567;SDS011;42456;49.956;20.004;2023-06-10T03:42:44;31.00;;;20.50;;
56567;SDS011;42456;49.956;20.004;2023-06-10T03:45:11;27.10;;;19.80;;
56567;SDS011;42456;49.956;20.004;2023-06-10T03:47:38;29.90;;;19.30;;
56567;SDS011;42456;49.956;20.004;2023-06-10T03:50:07;31.60;;;21.90;;
56567;SDS011;42456;49.956;20.004;2023-06-10T03:52:35;30.70;;;19.80;;
56567;SDS011;42456;49.956;20.004;2023-06-10T03:55:02;31.60;;;19.00;;
56567;SDS011;42456;49.956;20.004;2023-06-10T03:57:30;33.10;;;21.60;;
56567;SDS011;42456;49.956;20.004;2023-06-10T03:59:57;30.20;;;20.30;;
56567;SDS011;42456;49.956;20.004;2023-06-10T04:02:24;31.70;;;20.10;;
56567;SDS011;42456;49.956;20.004;2023-06-10T04:04:51;31.10;;;19.90;;
56567;SDS011;42456;49.956;20.004;2023-06-10T04:07:18;31.00;;;19.30;;
56567;SDS011;42456;49.956;20.004;2023-06-10T04:09:46;31.60;;;19.20;;
56567;SDS011;42456;49.956;20.004;2023-06-10T04:12:13;33.20;;;20.00;;
56567;SDS011;42456;49.956;20.004;2023-06-10T04:14:41;29.30;;;17.70;;
56567;SDS011;42456;49.956;20.004;2023-06-10T04:17:08;32.40;;;19.80;;
56567;SDS011;42456;49.956;20.004;2023-06-10T04:19:35;31.70;;;19.90;;
56567;SDS011;42456;49.956;20.004;2023-06-10T04:22:03;30.20;;;19.00;;
56567;SDS011;42456;49.956;20.004;2023-06-10T04:24:31;36.00;;;21.60;;
56567;SDS011;42456;49.956;20.004;2023-06-10T04:26:58;32.90;;;19.30;;
56567;SDS011;42456;49.956;20.004;2023-06-10T04:29:25;28.10;;;16.60;;
56567;SDS011;42456;49.956;20.004;2023-06-10T04:31:52;31.20;;;18.50;;
56567;SDS011;42456;49.956;20.004;2023-06-10T04:34:19;24.30;;;15.50;;
56567;SDS011;42456;49.956;20.004;2023-06-10T04:36:46;23.80;;;15.80;;
56567;SDS011;42456;49.956;20.004;2023-06-10T04:39:14;25.10;;;16.00;;
56567;SDS011;42456;49.956;20.004;2023-06-10T04:41:43;24.90;;;15.90;;
56567;SDS011;42456;49.956;20.004;2023-06-10T04:44:10;23.10;;;15.00;;
56567;SDS011;42456;49.956;20.004;2023-06-10T04:46:37;21.60;;;14.50;;
56567;SDS011;42456;49.956;20.004;2023-06-10T04:49:04;22.00;;;14.70;;
56567;SDS011;42456;49.956;20.004;2023-06-10T04:51:31;21.60;;;13.60;;
56567;SDS011;42456;49.956;20.004;2023-06-10T04:53:59;20.70;;;13.90;;
56567;SDS011;42456;49.956;20.004;2023-06-10T04:56:30;21.30;;;13.10;;
56567;SDS011;42456;49.956;20.004;2023-06-10T04:58:58;19.30;;;13.50;;
56567;SDS011;42456;49.956;20.004;2023-06-10T05:01:26;19.10;;;13.40;;
56567;SDS011;42456;49.956;20.004;2023-06-10T05:03:54;20.30;;;14.90;;
56567;SDS011;42456;49.956;20.004;2023-06-10T05:06:21;20.30;;;15.20;;
56567;SDS011;42456;49.956;20.004;2023-06-10T05:08:48;18.90;;;14.60;;
56567;SDS011;42456;49.956;20.004;2023-06-10T05:11:15;19.50;;;14.50;;
56567;SDS011;42456;49.956;20.004;2023-06-10T05:13:42;22.10;;;14.60;;
56567;SDS011;42456;49.956;20.004;2023-06-10T05:16:10;21.60;;;17.10;;
56567;SDS011;42456;49.956;20.004;2023-06-10T05:18:37;22.80;;;15.90;;
56567;SDS011;42456;49.956;20.004;2023-06-10T05:21:04;20.40;;;14.50;;
56567;SDS011;42456;49.956;20.004;2023-06-10T05:23:31;20.60;;;15.60;;
56567;SDS011;42456;49.956;20.004;2023-06-10T05:25:58;22.00;;;16.70;;
56567;SDS011;42456;49.956;20.004;2023-06-10T05:28:25;23.80;;;16.70;;
56567;SDS011;42456;49.956;20.004;2023-06-10T05:30:52;21.50;;;16.30;;
56567;SDS011;42456;49.956;20.004;2023-06-10T05:33:19;23.40;;;16.00;;
56567;SDS011;42456;49.956;20.004;2023-06-10T05:35:46;21.10;;;15.20;;
56567;SDS011;42456;49.956;20.004;2023-06-10T05:38:13;20.50;;;14.20;;
56567;SDS011;42456;49.956;20.004;2023-06-10T05:40:40;18.60;;;13.50;;
56567;SDS011;42456;49.956;20.004;2023-06-10T05:43:07;21.10;;;14.30;;
56567;SDS011;42456;49.956;20.004;2023-06-10T05:45:36;19.50;;;13.70;;
56567;SDS011;42456;49.956;20.004;2023-06-10T05:48:04;20.70;;;14.10;;
56567;SDS011;42456;49.956;20.004;2023-06-10T05:50:31;19.60;;;14.10;;
56567;SDS011;42456;49.956;20.004;2023-06-10T05:53:05;17.60;;;13.30;;
56567;SDS011;42456;49.956;20.004;2023-06-10T05:55:33;17.90;;;14.00;;
56567;SDS011;42456;49.956;20.004;2023-06-10T05:58:00;18.70;;;13.70;;
56567;SDS011;42456;49.956;20.004;2023-06-10T06:00:27;19.90;;;12.50;;
56567;SDS011;42456;49.956;20.004;2023-06-10T06:02:54;17.40;;;13.10;;
56567;SDS011;42456;49.956;20.004;2023-06-10T06:05:24;17.40;;;12.50;;
56567;SDS011;42456;49.956;20.004;2023-06-10T06:07:51;17.40;;;12.20;;
56567;SDS011;42456;49.956;20.004;2023-06-10T06:10:19;16.70;;;11.70;;
56567;SDS011;42456;49.956;20.004;2023-06-10T06:12:46;17.10;;;11.70;;
56567;SDS011;42456;49.956;20.004;2023-06-10T06:15:13;17.10;;;12.30;;
56567;SDS011;42456;49.956;20.004;2023-06-10T06:17:40;14.50;;;10.20;;
56567;SDS011;42456;49.956;20.004;2023-06-10T06:20:07;17.10;;;12.00;;
56567;SDS011;42456;49.956;20.004;2023-06-10T06:22:34;16.60;;;12.00;;
56567;SDS011;42456;49.956;20.004;2023-06-10T06:25:01;16.70;;;11.00;;
56567;SDS011;42456;49.956;20.004;2023-06-10T06:27:29;16.30;;;10.90;;
56567;SDS011;42456;49.956;20.004;2023-06-10T06:29:56;18.10;;;10.50;;
56567;SDS011;42456;49.956;20.004;2023-06-10T06:32:24;17.00;;;10.80;;
56567;SDS011;42456;49.956;20.004;2023-06-10T06:34:54;15.20;;;9.40;;
56567;SDS011;42456;49.956;20.004;2023-06-10T06:37:21;14.10;;;9.80;;
56567;SDS011;42456;49.956;20.004;2023-06-10T06:39:50;13.60;;;9.70;;
56567;SDS011;42456;49.956;20.004;2023-06-10T06:42:17;15.30;;;9.50;;
56567;SDS011;42456;49.956;20.004;2023-06-10T06:44:45;14.10;;;9.10;;
56567;SDS011;42456;49.956;20.004;2023-06-10T06:47:15;13.70;;;9.20;;
56567;SDS011;42456;49.956;20.004;2023-06-10T06:49:46;13.70;;;8.70;;
56567;SDS011;42456;49.956;20.004;2023-06-10T06:52:14;13.10;;;9.20;;
56567;SDS011;42456;49.956;20.004;2023-06-10T06:54:42;13.00;;;7.90;;
56567;SDS011;42456;49.956;20.004;2023-06-10T06:57:09;10.20;;;7.50;;
56567;SDS011;42456;49.956;20.004;2023-06-10T06:59:36;13.60;;;7.70;;
56567;SDS011;42456;49.956;20.004;2023-06-10T07:02:03;9.90;;;7.20;;
56567;SDS011;42456;49.956;20.004;2023-06-10T07:04:30;12.80;;;8.10;;
56567;SDS011;42456;49.956;20.004;2023-06-10T07:06:57;10.60;;;6.90;;
56567;SDS011;42456;49.956;20.004;2023-06-10T07:09:24;12.80;;;7.10;;
56567;SDS011;42456;49.956;20.004;2023-06-10T07:11:51;9.80;;;6.90;;
56567;SDS011;42456;49.956;20.004;2023-06-10T07:14:18;11.80;;;6.80;;
56567;SDS011;42456;49.956;20.004;2023-06-10T07:16:45;12.30;;;7.00;;
56567;SDS011;42456;49.956;20.004;2023-06-10T07:19:12;11.00;;;6.50;;
56567;SDS011;42456;49.956;20.004;2023-06-10T07:21:40;14.20;;;7.10;;
56567;SDS011;42456;49.956;20.004;2023-06-10T07:24:06;11.70;;;7.00;;
56567;SDS011;42456;49.956;20.004;2023-06-10T07:26:34;10.20;;;6.80;;
56567;SDS011;42456;49.956;20.004;2023-06-10T07:29:01;10.70;;;6.20;;
56567;SDS011;42456;49.956;20.004;2023-06-10T07:31:28;9.90;;;7.00;;
56567;SDS011;42456;49.956;20.004;2023-06-10T07:33:55;7.90;;;6.10;;
56567;SDS011;42456;49.956;20.004;2023-06-10T07:36:22;10.20;;;6.50;;
56567;SDS011;42456;49.956;20.004;2023-06-10T07:38:49;11.70;;;6.60;;
56567;SDS011;42456;49.956;20.004;2023-06-10T07:41:16;11.90;;;6.90;;
56567;SDS011;42456;49.956;20.004;2023-06-10T07:43:44;11.10;;;6.30;;
56567;SDS011;42456;49.956;20.004;2023-06-10T07:46:11;9.90;;;6.70;;
56567;SDS011;42456;49.956;20.004;2023-06-10T07:48:38;11.20;;;6.80;;
56567;SDS011;42456;49.956;20.004;2023-06-10T07:51:05;10.00;;;6.80;;
56567;SDS011;42456;49.956;20.004;2023-06-10T07:53:32;10.50;;;6.70;;
56567;SDS011;42456;49.956;20.004;2023-06-10T07:55:59;10.90;;;5.90;;
56567;SDS011;42456;49.956;20.004;2023-06-10T07:58:26;11.20;;;6.60;;
56567;SDS011;42456;49.956;20.004;2023-06-10T08:00:53;9.50;;;6.60;;
56567;SDS011;42456;49.956;20.004;2023-06-10T08:03:20;10.00;;;6.60;;
56567;SDS011;42456;49.956;20.004;2023-06-10T08:05:47;11.40;;;6.30;;
56567;SDS011;42456;49.956;20.004;2023-06-10T08:08:14;13.00;;;7.00;;
56567;SDS011;42456;49.956;20.004;2023-06-10T08:10:41;8.50;;;6.20;;
56567;SDS011;42456;49.956;20.004;2023-06-10T08:13:08;10.10;;;6.80;;
56567;SDS011;42456;49.956;20.004;2023-06-10T08:15:35;12.30;;;6.90;;
56567;SDS011;42456;49.956;20.004;2023-06-10T08:18:02;9.20;;;6.20;;
56567;SDS011;42456;49.956;20.004;2023-06-10T08:20:29;12.70;;;7.10;;
56567;SDS011;42456;49.956;20.004;2023-06-10T08:22:57;10.40;;;6.70;;
56567;SDS011;42456;49.956;20.004;2023-06-10T08:25:23;9.10;;;6.10;;
56567;SDS011;42456;49.956;20.004;2023-06-10T08:27:51;10.20;;;6.80;;
56567;SDS011;42456;49.956;20.004;2023-06-10T08:30:18;10.90;;;6.90;;
56567;SDS011;42456;49.956;20.004;2023-06-10T08:32:45;8.80;;;6.40;;
56567;SDS011;42456;49.956;20.004;2023-06-10T08:35:13;11.90;;;6.80;;
56567;SDS011;42456;49.956;20.004;2023-06-10T08:37:40;10.40;;;7.00;;
56567;SDS011;42456;49.956;20.004;2023-06-10T08:40:07;11.80;;;6.70;;
56567;SDS011;42456;49.956;20.004;2023-06-10T08:43:10;11.30;;;6.50;;
56567;SDS011;42456;49.956;20.004;2023-06-10T08:45:37;7.40;;;6.00;;
56567;SDS011;42456;49.956;20.004;2023-06-10T08:48:04;10.20;;;6.40;;
56567;SDS011;42456;49.956;20.004;2023-06-10T08:50:36;9.70;;;6.70;;
56567;SDS011;42456;49.956;20.004;2023-06-10T08:53:05;10.20;;;6.70;;
56567;SDS011;42456;49.956;20.004;2023-06-10T08:55:35;11.00;;;6.30;;
56567;SDS011;42456;49.956;20.004;2023-06-10T08:58:04;8.80;;;6.30;;
56567;SDS011;42456;49.956;20.004;2023-06-10T09:00:32;11.00;;;6.60;;
56567;SDS011;42456;49.956;20.004;2023-06-10T09:03:01;10.90;;;6.60;;
56567;SDS011;42456;49.956;20.004;2023-06-10T09:05:34;9.70;;;6.20;;
56567;SDS011;42456;49.956;20.004;2023-06-10T09:08:03;7.70;;;5.90;;
56567;SDS011;42456;49.956;20.004;2023-06-10T09:10:32;8.20;;;5.80;;
56567;SDS011;42456;49.956;20.004;2023-06-10T09:13:00;11.20;;;6.70;;
56567;SDS011;42456;49.956;20.004;2023-06-10T09:15:27;8.10;;;6.20;;
56567;SDS011;42456;49.956;20.004;2023-06-10T09:17:54;10.90;;;6.60;;
56567;SDS011;42456;49.956;20.004;2023-06-10T09:20:21;9.00;;;6.10;;
56567;SDS011;42456;49.956;20.004;2023-06-10T09:22:48;9.50;;;6.40;;
56567;SDS011;42456;49.956;20.004;2023-06-10T09:25:16;9.30;;;6.20;;
56567;SDS011;42456;49.956;20.004;2023-06-10T09:27:46;8.40;;;6.60;;
56567;SDS011;42456;49.956;20.004;2023-06-10T09:33:00;8.50;;;5.90;;
56567;SDS011;42456;49.956;20.004;2023-06-10T09:35:30;9.80;;;5.70;;
56567;SDS011;42456;49.956;20.004;2023-06-10T09:37:58;9.40;;;5.90;;
56567;SDS011;42456;49.956;20.004;2023-06-10T09:40:26;8.40;;;5.80;;
56567;SDS011;42456;49.956;20.004;2023-06-10T09:45:22;7.70;;;5.40;;
56567;SDS011;42456;49.956;20.004;2023-06-10T09:47:53;7.70;;;5.50;;
56567;SDS011;42456;49.956;20.004;2023-06-10T09:50:20;9.30;;;5.70;;
56567;SDS011;42456;49.956;20.004;2023-06-10T09:52:48;7.60;;;5.70;;
56567;SDS011;42456;49.956;20.004;2023-06-10T09:55:15;9.20;;;5.40;;
56567;SDS011;42456;49.956;20.004;2023-06-10T09:57:43;11.30;;;6.10;;
56567;SDS011;42456;49.956;20.004;2023-06-10T10:00:15;9.40;;;5.50;;
56567;SDS011;42456;49.956;20.004;2023-06-10T10:02:46;10.00;;;6.30;;
56567;SDS011;42456;49.956;20.004;2023-06-10T10:05:16;6.90;;;5.30;;
56567;SDS011;42456;49.956;20.004;2023-06-10T10:07:45;11.90;;;6.50;;
56567;SDS011;42456;49.956;20.004;2023-06-10T10:10:13;13.70;;;6.50;;
56567;SDS011;42456;49.956;20.004;2023-06-10T10:12:42;11.10;;;6.10;;
56567;SDS011;42456;49.956;20.004;2023-06-10T10:15:12;8.10;;;5.60;;
56567;SDS011;42456;49.956;20.004;2023-06-10T10:17:40;10.90;;;6.60;;
56567;SDS011;42456;49.956;20.004;2023-06-10T10:20:16;9.90;;;6.80;;
56567;SDS011;42456;49.956;20.004;2023-06-10T10:22:47;10.10;;;6.70;;
56567;SDS011;42456;49.956;20.004;2023-06-10T10:25:23;9.70;;;6.30;;
56567;SDS011;42456;49.956;20.004;2023-06-10T10:27:59;10.30;;;6.20;;
56567;SDS011;42456;49.956;20.004;2023-06-10T10:30:37;9.70;;;6.60;;
56567;SDS011;42456;49.956;20.004;2023-06-10T10:35:52;8.40;;;5.70;;
56567;SDS011;42456;49.956;20.004;2023-06-10T10:38:20;8.30;;;5.30;;
56567;SDS011;42456;49.956;20.004;2023-06-10T10:40:48;8.30;;;5.70;;
56567;SDS011;42456;49.956;20.004;2023-06-10T10:43:16;8.60;;;5.00;;
56567;SDS011;42456;49.956;20.004;2023-06-10T10:45:57;6.80;;;5.00;;
56567;SDS011;42456;49.956;20.004;2023-06-10T10:48:36;9.30;;;5.30;;
56567;SDS011;42456;49.956;20.004;2023-06-10T10:51:05;7.70;;;5.20;;
56567;SDS011;42456;49.956;20.004;2023-06-10T10:53:32;8.00;;;4.90;;
56567;SDS011;42456;49.956;20.004;2023-06-10T10:59:06;6.50;;;4.80;;
56567;SDS011;42456;49.956;20.004;2023-06-10T11:01:41;8.40;;;5.70;;
56567;SDS011;42456;49.956;20.004;2023-06-10T11:04:13;9.20;;;5.80;;
56567;SDS011;42456;49.956;20.004;2023-06-10T11:06:40;6.90;;;4.90;;
56567;SDS011;42456;49.956;20.004;2023-06-10T11:11:57;7.80;;;5.50;;
56567;SDS011;42456;49.956;20.004;2023-06-10T11:14:28;7.80;;;5.40;;
56567;SDS011;42456;49.956;20.004;2023-06-10T11:16:57;10.10;;;5.50;;
56567;SDS011;42456;49.956;20.004;2023-06-10T11:19:35;7.80;;;5.30;;
56567;SDS011;42456;49.956;20.004;2023-06-10T11:22:05;7.30;;;5.50;;
56567;SDS011;42456;49.956;20.004;2023-06-10T11:24:34;8.30;;;5.70;;
56567;SDS011;42456;49.956;20.004;2023-06-10T11:27:22;7.90;;;5.30;;
56567;SDS011;42456;49.956;20.004;2023-06-10T11:32:30;9.60;;;6.80;;
56567;SDS011;42456;49.956;20.004;2023-06-10T11:34:59;9.10;;;6.30;;
56567;SDS011;42456;49.956;20.004;2023-06-10T11:37:29;9.10;;;5.90;;
56567;SDS011;42456;49.956;20.004;2023-06-10T11:39:56;10.70;;;6.40;;
56567;SDS011;42456;49.956;20.004;2023-06-10T11:42:23;10.10;;;6.60;;
56567;SDS011;42456;49.956;20.004;2023-06-10T11:44:51;11.20;;;6.70;;
56567;SDS011;42456;49.956;20.004;2023-06-10T11:47:20;9.20;;;6.00;;
56567;SDS011;42456;49.956;20.004;2023-06-10T11:49:55;9.70;;;6.10;;
56567;SDS011;42456;49.956;20.004;2023-06-10T11:52:30;8.70;;;6.50;;
56567;SDS011;42456;49.956;20.004;2023-06-10T11:55:00;11.00;;;6.90;;
56567;SDS011;42456;49.956;20.004;2023-06-10T11:57:27;9.80;;;6.50;;
56567;SDS011;42456;49.956;20.004;2023-06-10T11:59:54;9.70;;;7.20;;
56567;SDS011;42456;49.956;20.004;2023-06-10T12:02:21;10.20;;;7.60;;
56567;SDS011;42456;49.956;20.004;2023-06-10T12:04:49;10.20;;;7.80;;
56567;SDS011;42456;49.956;20.004;2023-06-10T12:07:17;9.80;;;7.20;;
56567;SDS011;42456;49.956;20.004;2023-06-10T12:09:46;8.80;;;5.90;;
56567;SDS011;42456;49.956;20.004;2023-06-10T12:12:13;7.80;;;5.60;;
56567;SDS011;42456;49.956;20.004;2023-06-10T12:18:10;7.50;;;5.90;;
56567;SDS011;42456;49.956;20.004;2023-06-10T12:22:56;7.20;;;5.30;;
56567;SDS011;42456;49.956;20.004;2023-06-10T12:25:29;8.50;;;5.30;;
56567;SDS011;42456;49.956;20.004;2023-06-10T12:27:57;7.80;;;5.20;;
56567;SDS011;42456;49.956;20.004;2023-06-10T12:30:25;6.50;;;4.90;;
56567;SDS011;42456;49.956;20.004;2023-06-10T12:32:54;6.40;;;4.40;;
56567;SDS011;42456;49.956;20.004;2023-06-10T12:35:23;8.10;;;4.60;;
56567;SDS011;42456;49.956;20.004;2023-06-10T12:40:31;5.80;;;4.40;;
56567;SDS011;42456;49.956;20.004;2023-06-10T12:42:59;6.50;;;4.40;;
56567;SDS011;42456;49.956;20.004;2023-06-10T12:45:33;6.10;;;4.40;;
56567;SDS011;42456;49.956;20.004;2023-06-10T12:48:09;6.40;;;4.60;;
56567;SDS011;42456;49.956;20.004;2023-06-10T12:50:38;5.70;;;4.50;;
56567;SDS011;42456;49.956;20.004;2023-06-10T12:53:07;6.40;;;4.80;;
56567;SDS011;42456;49.956;20.004;2023-06-10T12:55:36;5.70;;;4.60;;
56567;SDS011;42456;49.956;20.004;2023-06-10T12:58:03;5.50;;;4.50;;
56567;SDS011;42456;49.956;20.004;2023-06-10T13:00:31;4.80;;;4.20;;
56567;SDS011;42456;49.956;20.004;2023-06-10T13:03:01;6.00;;;3.90;;
56567;SDS011;42456;49.956;20.004;2023-06-10T13:05:29;5.40;;;3.90;;
56567;SDS011;42456;49.956;20.004;2023-06-10T13:07:56;5.70;;;4.30;;
56567;SDS011;42456;49.956;20.004;2023-06-10T13:10:24;5.80;;;4.50;;
56567;SDS011;42456;49.956;20.004;2023-06-10T13:12:52;6.30;;;4.20;;
56567;SDS011;42456;49.956;20.004;2023-06-10T13:15:21;6.10;;;4.20;;
56567;SDS011;42456;49.956;20.004;2023-06-10T13:17:48;7.00;;;4.40;;
56567;SDS011;42456;49.956;20.004;2023-06-10T13:20:20;6.40;;;4.20;;
56567;SDS011;42456;49.956;20.004;2023-06-10T13:22:47;6.40;;;4.70;;
56567;SDS011;42456;49.956;20.004;2023-06-10T13:25:15;7.80;;;4.80;;
56567;SDS011;42456;49.956;20.004;2023-06-10T13:27:42;8.10;;;4.80;;
56567;SDS011;42456;49.956;20.004;2023-06-10T13:30:10;7.20;;;4.50;;
56567;SDS011;42456;49.956;20.004;2023-06-10T13:32:38;8.50;;;5.20;;
56567;SDS011;42456;49.956;20.004;2023-06-10T13:35:06;8.00;;;5.20;;
56567;SDS011;42456;49.956;20.004;2023-06-10T13:37:35;7.60;;;5.20;;
56567;SDS011;42456;49.956;20.004;2023-06-10T13:40:03;5.60;;;4.70;;
56567;SDS011;42456;49.956;20.004;2023-06-10T13:42:30;7.70;;;5.20;;
56567;SDS011;42456;49.956;20.004;2023-06-10T13:44:57;7.80;;;5.20;;
56567;SDS011;42456;49.956;20.004;2023-06-10T13:47:24;5.50;;;4.90;;
56567;SDS011;42456;49.956;20.004;2023-06-10T13:49:52;5.70;;;4.80;;
56567;SDS011;42456;49.956;20.004;2023-06-10T13:52:19;8.60;;;5.50;;
56567;SDS011;42456;49.956;20.004;2023-06-10T13:54:46;6.80;;;5.10;;
56567;SDS011;42456;49.956;20.004;2023-06-10T13:57:12;7.50;;;5.40;;
56567;SDS011;42456;49.956;20.004;2023-06-10T13:59:39;9.10;;;5.80;;
56567;SDS011;42456;49.956;20.004;2023-06-10T14:02:06;6.50;;;5.30;;
56567;SDS011;42456;49.956;20.004;2023-06-10T14:04:34;8.70;;;5.50;;
56567;SDS011;42456;49.956;20.004;2023-06-10T14:07:01;10.30;;;5.70;;
56567;SDS011;42456;49.956;20.004;2023-06-10T14:09:27;6.30;;;4.90;;
56567;SDS011;42456;49.956;20.004;2023-06-10T14:11:55;7.00;;;4.70;;
56567;SDS011;42456;49.956;20.004;2023-06-10T14:14:22;5.60;;;4.10;;
56567;SDS011;42456;49.956;20.004;2023-06-10T14:16:49;5.80;;;4.60;;
56567;SDS011;42456;49.956;20.004;2023-06-10T14:19:16;5.40;;;3.90;;
56567;SDS011;42456;49.956;20.004;2023-06-10T14:21:44;7.20;;;4.20;;
56567;SDS011;42456;49.956;20.004;2023-06-10T14:24:11;6.20;;;3.90;;
56567;SDS011;42456;49.956;20.004;2023-06-10T14:26:38;5.10;;;4.00;;
56567;SDS011;42456;49.956;20.004;2023-06-10T14:29:05;6.00;;;4.00;;
56567;SDS011;42456;49.956;20.004;2023-06-10T14:31:33;4.30;;;3.90;;
56567;SDS011;42456;49.956;20.004;2023-06-10T14:34:00;4.70;;;3.70;;
56567;SDS011;42456;49.956;20.004;2023-06-10T14:36:27;6.40;;;4.00;;
56567;SDS011;42456;49.956;20.004;2023-06-10T14:38:54;5.60;;;3.90;;
56567;SDS011;42456;49.956;20.004;2023-06-10T14:41:23;6.00;;;3.70;;
56567;SDS011;42456;49.956;20.004;2023-06-10T14:43:51;4.70;;;3.50;;
56567;SDS011;42456;49.956;20.004;2023-06-10T14:46:18;6.20;;;3.90;;
56567;SDS011;42456;49.956;20.004;2023-06-10T14:48:47;4.10;;;3.40;;
56567;SDS011;42456;49.956;20.004;2023-06-10T14:51:16;4.40;;;3.40;;
56567;SDS011;42456;49.956;20.004;2023-06-10T14:53:42;6.70;;;3.90;;
56567;SDS011;42456;49.956;20.004;2023-06-10T14:56:09;6.00;;;3.60;;
56567;SDS011;42456;49.956;20.004;2023-06-10T14:58:36;5.20;;;3.30;;